Time,TemperatureF,DewpointF,PressureIn,WindDirection,WindDirectionDegrees,WindSpeedMPH,WindSpeedGustMPH,Humidity,HourlyPrecipIn,Conditions,Clouds,dailyrainin,SoftwareType,DateUTC
2013-01-07 00:03:00,32.0,28.0,30.23,SSW,212,0.0,0.0,84,0.00,,,0.03,,2013-01-07 05:03:00,
2013-01-07 00:12:00,32.0,28.0,30.23,SSW,212,0.0,0.0,84,0.00,,,0.03,,2013-01-07 05:12:00,
2013-01-07 00:22:00,31.0,27.0,30.23,SW,215,0.0,0.0,85,0.00,,,0.03,,2013-01-07 05:22:00,
2013-01-07 00:33:00,31.0,27.0,30.23,SW,215,0.0,0.0,85,0.00,,,0.03,,2013-01-07 05:33:00,
2013-01-07 00:42:00,31.0,27.0,30.23,SW,215,0.0,0.0,85,0.00,,,0.03,,2013-01-07 05:42:00,
2013-01-07 00:53:00,29.0,26.0,30.24,SW,215,0.0,0.0,87,0.00,,,0.03,,2013-01-07 05:53:00,
2013-01-07 01:02:00,29.0,26.0,30.24,SW,215,0.0,0.0,87,0.00,,,0.03,,2013-01-07 06:02:00,
2013-01-07 01:12:00,29.0,26.0,30.24,SW,215,0.0,0.0,87,0.00,,,0.03,,2013-01-07 06:12:00,
2013-01-07 01:22:00,28.0,26.0,30.24,SSW,212,0.0,0.0,91,0.00,,,0.03,,2013-01-07 06:22:00,
2013-01-07 01:32:00,28.0,26.0,30.24,SSW,212,0.0,0.0,91,0.00,,,0.03,,2013-01-07 06:32:00,
2013-01-07 01:42:00,28.0,26.0,30.24,SSW,212,0.0,0.0,91,0.00,,,0.03,,2013-01-07 06:42:00,
2013-01-07 01:52:00,29.0,26.0,30.26,SW,215,0.0,0.0,89,0.00,,,0.03,,2013-01-07 06:52:00,
2013-01-07 02:02:00,29.0,26.0,30.27,SW,215,0.0,1.0,89,0.00,,,0.03,,2013-01-07 07:02:00,
2013-01-07 02:12:00,29.0,26.0,30.27,SW,215,0.0,1.0,89,0.00,,,0.03,,2013-01-07 07:12:00,
2013-01-07 02:22:00,28.0,25.0,30.27,SW,215,0.0,0.0,90,0.00,,,0.03,,2013-01-07 07:22:00,
2013-01-07 02:33:00,27.0,24.0,30.27,SW,215,0.0,0.0,90,0.00,,,0.03,,2013-01-07 07:33:00,
2013-01-07 02:42:00,27.0,24.0,30.27,SW,215,0.0,0.0,90,0.00,,,0.03,,2013-01-07 07:42:00,
2013-01-07 02:53:00,27.0,25.0,30.27,SW,215,0.0,0.0,92,0.00,,,0.03,,2013-01-07 07:53:00,
2013-01-07 03:03:00,27.0,25.0,30.28,SW,215,0.0,0.0,92,0.00,,,0.03,,2013-01-07 08:03:00,
2013-01-07 03:12:00,27.0,25.0,30.28,SW,215,0.0,0.0,92,0.00,,,0.03,,2013-01-07 08:12:00,
2013-01-07 03:22:00,27.0,25.0,30.28,SW,215,0.0,0.0,92,0.00,,,0.03,,2013-01-07 08:22:00,
2013-01-07 03:33:00,27.0,25.0,30.28,SW,215,0.0,0.0,93,0.00,,,0.03,,2013-01-07 08:33:00,
2013-01-07 03:42:00,27.0,25.0,30.28,SW,215,0.0,0.0,93,0.00,,,0.03,,2013-01-07 08:42:00,
2013-01-07 03:53:00,27.0,25.0,30.28,SW,215,0.0,0.0,92,0.00,,,0.03,,2013-01-07 08:53:00,
2013-01-07 04:02:00,26.0,24.0,30.29,SW,216,0.0,0.0,92,0.00,,,0.03,,2013-01-07 09:02:00,
2013-01-07 04:12:00,26.0,24.0,30.29,SW,216,0.0,0.0,92,0.00,,,0.03,,2013-01-07 09:12:00,
2013-01-07 04:23:00,26.0,24.0,30.29,SW,215,0.0,0.0,93,0.00,,,0.03,,2013-01-07 09:23:00,
2013-01-07 04:32:00,26.0,24.0,30.29,SW,215,0.0,0.0,93,0.00,,,0.03,,2013-01-07 09:32:00,
2013-01-07 04:42:00,26.0,24.0,30.29,SW,215,0.0,0.0,93,0.00,,,0.03,,2013-01-07 09:42:00,
2013-01-07 04:53:00,26.0,24.0,30.30,SW,216,0.0,0.0,93,0.00,,,0.03,,2013-01-07 09:53:00,
2013-01-07 05:02:00,26.0,24.0,30.31,SW,215,0.0,0.0,93,0.00,,,0.03,,2013-01-07 10:02:00,
2013-01-07 05:12:00,26.0,24.0,30.31,SW,215,0.0,0.0,93,0.00,,,0.03,,2013-01-07 10:12:00,
2013-01-07 05:22:00,26.0,25.0,30.32,SSW,212,0.0,0.0,94,0.00,,,0.03,,2013-01-07 10:22:00,
2013-01-07 05:32:00,26.0,25.0,30.32,SSW,212,0.0,0.0,94,0.00,,,0.03,,2013-01-07 10:32:00,
2013-01-07 05:42:00,26.0,25.0,30.32,SSW,212,0.0,0.0,94,0.00,,,0.03,,2013-01-07 10:42:00,
2013-01-07 05:52:00,26.0,25.0,30.33,SSW,212,0.0,0.0,94,0.00,,,0.03,,2013-01-07 10:52:00,
2013-01-07 06:02:00,26.0,25.0,30.33,SSW,212,0.0,0.0,94,0.00,,,0.03,,2013-01-07 11:02:00,
2013-01-07 06:12:00,26.0,25.0,30.33,SSW,212,0.0,0.0,94,0.00,,,0.03,,2013-01-07 11:12:00,
2013-01-07 06:23:00,26.0,25.0,30.35,SSW,212,0.0,0.0,94,0.00,,,0.03,,2013-01-07 11:23:00,
2013-01-07 06:33:00,26.0,25.0,30.36,SSW,212,0.0,0.0,94,0.00,,,0.03,,2013-01-07 11:33:00,
2013-01-07 06:43:00,26.0,25.0,30.36,SSW,212,0.0,0.0,94,0.00,,,0.03,,2013-01-07 11:43:00,
2013-01-07 06:53:00,27.0,26.0,30.37,SSW,212,0.0,0.0,95,0.00,,,0.03,,2013-01-07 11:53:00,
2013-01-07 07:03:00,28.0,27.0,30.38,SSW,212,0.0,0.0,94,0.00,,,0.03,,2013-01-07 12:03:00,
2013-01-07 07:12:00,29.0,27.0,30.40,SSW,213,0.0,1.0,94,0.00,,,0.03,,2013-01-07 12:12:00,
2013-01-07 07:23:00,29.0,27.0,30.40,SSW,213,0.0,1.0,94,0.00,,,0.03,,2013-01-07 12:23:00,
2013-01-07 07:33:00,29.0,27.0,30.40,West,278,0.0,3.0,94,0.00,,,0.03,,2013-01-07 12:33:00,
2013-01-07 07:43:00,29.0,27.0,30.40,West,278,0.0,3.0,94,0.00,,,0.03,,2013-01-07 12:43:00,
2013-01-07 07:53:00,30.0,28.0,30.42,WSW,245,0.0,1.0,93,0.00,,,0.03,,2013-01-07 12:53:00,
2013-01-07 08:03:00,30.0,28.0,30.42,WSW,245,0.0,1.0,93,0.00,,,0.03,,2013-01-07 13:03:00,
2013-01-07 08:12:00,30.0,28.0,30.42,WSW,245,0.0,1.0,93,0.00,,,0.03,,2013-01-07 13:12:00,
2013-01-07 08:23:00,30.0,27.0,30.44,WSW,240,0.0,0.0,90,0.00,,,0.03,,2013-01-07 13:23:00,
2013-01-07 08:33:00,31.0,28.0,30.45,NNW,335,0.0,2.0,88,0.00,,,0.03,,2013-01-07 13:33:00,
2013-01-07 08:43:00,31.0,28.0,30.45,NNW,335,0.0,2.0,88,0.00,,,0.03,,2013-01-07 13:43:00,
2013-01-07 08:53:00,32.0,28.0,30.46,WNW,287,0.0,3.0,85,0.00,,,0.03,,2013-01-07 13:53:00,
2013-01-07 09:03:00,32.0,28.0,30.46,WNW,287,0.0,3.0,85,0.00,,,0.03,,2013-01-07 14:03:00,
2013-01-07 09:13:00,32.0,28.0,30.46,WNW,287,0.0,3.0,85,0.00,,,0.03,,2013-01-07 14:13:00,
2013-01-07 09:23:00,34.0,28.0,30.49,WNW,297,1.0,3.0,80,0.00,,,0.03,,2013-01-07 14:23:00,
2013-01-07 09:33:00,34.0,28.0,30.50,WSW,253,1.0,3.0,78,0.00,,,0.03,,2013-01-07 14:33:00,
2013-01-07 09:43:00,34.0,28.0,30.50,WSW,253,1.0,3.0,78,0.00,,,0.03,,2013-01-07 14:43:00,
2013-01-07 09:53:00,34.0,27.0,30.53,WSW,252,1.0,3.0,75,0.00,,,0.03,,2013-01-07 14:53:00,
2013-01-07 10:03:00,34.0,27.0,30.53,WSW,252,1.0,3.0,75,0.00,,,0.03,,2013-01-07 15:03:00,
2013-01-07 10:12:00,34.0,27.0,30.53,WSW,252,1.0,3.0,75,0.00,,,0.03,,2013-01-07 15:12:00,
2013-01-07 10:23:00,34.0,27.0,30.53,WSW,252,1.0,3.0,75,0.00,,,0.03,,2013-01-07 15:23:00,
2013-01-07 10:43:00,35.0,24.0,30.55,West,259,1.0,3.0,63,0.00,,,0.03,,2013-01-07 15:43:00,
2013-01-07 10:53:00,35.0,24.0,30.55,West,271,2.0,5.0,65,0.00,,,0.03,,2013-01-07 15:53:00,
2013-01-07 11:03:00,35.0,24.0,30.55,West,259,1.0,3.0,63,0.00,,,0.03,,2013-01-07 16:03:00,
2013-01-07 11:12:00,35.0,24.0,30.55,West,259,1.0,3.0,63,0.00,,,0.03,,2013-01-07 16:12:00,
2013-01-07 11:23:00,35.0,24.0,30.55,West,259,1.0,3.0,63,0.00,,,0.03,,2013-01-07 16:23:00,
2013-01-07 11:33:00,35.0,24.0,30.55,West,259,1.0,3.0,63,0.00,,,0.03,,2013-01-07 16:33:00,
2013-01-07 11:53:00,35.0,23.0,30.56,West,278,1.0,2.0,61,0.00,,,0.03,,2013-01-07 16:53:00,
2013-01-07 12:03:00,35.0,23.0,30.56,NE,53,1.0,3.0,62,0.00,,,0.03,,2013-01-07 17:03:00,
2013-01-07 12:12:00,35.0,23.0,30.56,NE,53,1.0,3.0,62,0.00,,,0.03,,2013-01-07 17:12:00,
2013-01-07 12:23:00,34.0,22.0,30.56,West,277,1.0,3.0,60,0.00,,,0.03,,2013-01-07 17:23:00,
2013-01-07 12:33:00,34.0,22.0,30.56,West,277,1.0,3.0,60,0.00,,,0.03,,2013-01-07 17:33:00,
2013-01-07 12:42:00,34.0,22.0,30.56,West,277,1.0,3.0,60,0.00,,,0.03,,2013-01-07 17:42:00,
2013-01-07 12:53:00,35.0,22.0,30.58,SW,236,0.0,2.0,58,0.00,,,0.03,,2013-01-07 17:53:00,
2013-01-07 13:03:00,35.0,22.0,30.58,West,277,1.0,2.0,58,0.00,,,0.03,,2013-01-07 18:03:00,
2013-01-07 13:13:00,35.0,22.0,30.58,West,277,1.0,2.0,58,0.00,,,0.03,,2013-01-07 18:13:00,
2013-01-07 13:23:00,35.0,21.0,30.58,West,276,2.0,3.0,57,0.00,,,0.03,,2013-01-07 18:23:00,
2013-01-07 13:33:00,34.0,20.0,30.59,West,273,1.0,3.0,56,0.00,,,0.03,,2013-01-07 18:33:00,
2013-01-07 13:43:00,34.0,20.0,30.59,West,273,1.0,3.0,56,0.00,,,0.03,,2013-01-07 18:43:00,
2013-01-07 13:53:00,34.0,19.0,30.59,West,271,1.0,2.0,54,0.00,,,0.03,,2013-01-07 18:53:00,
2013-01-07 14:03:00,34.0,19.0,30.59,West,280,1.0,3.0,54,0.00,,,0.03,,2013-01-07 19:03:00,
2013-01-07 14:12:00,34.0,19.0,30.59,West,280,1.0,3.0,54,0.00,,,0.03,,2013-01-07 19:12:00,
2013-01-07 14:23:00,34.0,20.0,30.60,North,349,2.0,3.0,55,0.00,,,0.03,,2013-01-07 19:23:00,
2013-01-07 14:33:00,34.0,20.0,30.60,North,349,2.0,3.0,55,0.00,,,0.03,,2013-01-07 19:33:00,
2013-01-07 14:43:00,34.0,20.0,30.60,North,349,2.0,3.0,55,0.00,,,0.03,,2013-01-07 19:43:00,
2013-01-07 14:53:00,35.0,19.0,30.62,ENE,70,1.0,2.0,52,0.00,,,0.02,,2013-01-07 19:53:00,
2013-01-07 15:03:00,35.0,20.0,30.62,NNE,27,0.0,1.0,53,0.00,,,0.01,,2013-01-07 20:03:00,
2013-01-07 15:13:00,35.0,20.0,30.62,NNE,27,0.0,1.0,53,0.00,,,0.01,,2013-01-07 20:13:00,
2013-01-07 15:23:00,35.0,20.0,30.63,East,91,0.0,1.0,53,0.00,,,0.01,,2013-01-07 20:23:00,
2013-01-07 15:33:00,34.0,17.0,30.63,WSW,247,1.0,2.0,49,0.00,,,0.00,,2013-01-07 20:33:00,
2013-01-07 15:42:00,34.0,17.0,30.63,WSW,247,1.0,2.0,49,0.00,,,0.00,,2013-01-07 20:42:00,
2013-01-07 15:53:00,34.0,19.0,30.63,SW,215,0.0,1.0,54,0.00,,,0.00,,2013-01-07 20:53:00,
2013-01-07 16:03:00,33.0,20.0,30.63,West,269,0.0,2.0,58,0.00,,,0.00,,2013-01-07 21:03:00,
2013-01-07 16:12:00,33.0,20.0,30.63,West,269,0.0,2.0,58,0.00,,,0.00,,2013-01-07 21:12:00,
2013-01-07 16:23:00,31.0,18.0,30.65,West,259,0.0,2.0,59,0.00,,,0.00,,2013-01-07 21:23:00,
2013-01-07 16:33:00,31.0,18.0,30.65,West,259,0.0,2.0,59,0.00,,,0.00,,2013-01-07 21:33:00,
2013-01-07 16:43:00,31.0,18.0,30.65,West,259,0.0,2.0,59,0.00,,,0.00,,2013-01-07 21:43:00,
2013-01-07 16:53:00,29.0,19.0,30.66,West,260,0.0,0.0,65,0.00,,,0.00,,2013-01-07 21:53:00,
2013-01-07 17:03:00,29.0,19.0,30.66,West,260,0.0,0.0,65,0.00,,,0.00,,2013-01-07 22:03:00,
2013-01-07 17:12:00,29.0,19.0,30.66,West,260,0.0,0.0,65,0.00,,,0.00,,2013-01-07 22:12:00,
2013-01-07 17:23:00,27.0,16.0,30.66,West,260,0.0,0.0,64,0.00,,,0.00,,2013-01-07 22:23:00,
2013-01-07 17:33:00,26.0,16.0,30.66,West,260,0.0,0.0,65,0.00,,,0.00,,2013-01-07 22:33:00,
2013-01-07 17:43:00,26.0,16.0,30.66,West,260,0.0,0.0,65,0.00,,,0.00,,2013-01-07 22:43:00,
2013-01-07 17:53:00,25.0,16.0,30.66,West,260,0.0,0.0,67,0.00,,,0.00,,2013-01-07 22:53:00,
2013-01-07 18:02:00,25.0,16.0,30.66,West,260,0.0,0.0,67,0.00,,,0.00,,2013-01-07 23:02:00,
2013-01-07 18:12:00,25.0,16.0,30.66,West,260,0.0,0.0,67,0.00,,,0.00,,2013-01-07 23:12:00,
2013-01-07 18:23:00,24.0,15.0,30.68,West,260,0.0,0.0,69,0.00,,,0.00,,2013-01-07 23:23:00,
2013-01-07 18:33:00,24.0,17.0,30.69,West,260,0.0,0.0,74,0.00,,,0.00,,2013-01-07 23:33:00,
2013-01-07 18:43:00,24.0,17.0,30.69,West,260,0.0,0.0,74,0.00,,,0.00,,2013-01-07 23:43:00,
2013-01-07 18:53:00,22.0,14.0,30.68,West,260,0.0,0.0,72,0.00,,,0.00,,2013-01-07 23:53:00,
2013-01-07 19:03:00,22.0,14.0,30.68,West,260,0.0,0.0,72,0.00,,,0.00,,2013-01-08 00:03:00,
2013-01-07 19:12:00,22.0,14.0,30.68,West,260,0.0,0.0,72,0.00,,,0.00,,2013-01-08 00:12:00,
2013-01-07 19:22:00,21.0,15.0,30.68,West,260,0.0,0.0,77,0.00,,,0.00,,2013-01-08 00:22:00,
2013-01-07 19:33:00,22.0,16.0,30.67,West,259,0.0,0.0,77,0.00,,,0.00,,2013-01-08 00:33:00,
2013-01-07 19:43:00,22.0,16.0,30.67,West,259,0.0,0.0,77,0.00,,,0.00,,2013-01-08 00:43:00,
2013-01-07 19:53:00,21.0,15.0,30.68,West,260,0.0,0.0,76,0.00,,,0.00,,2013-01-08 00:53:00,
2013-01-07 20:03:00,21.0,15.0,30.68,West,260,0.0,0.0,76,0.00,,,0.00,,2013-01-08 01:03:00,
2013-01-07 20:12:00,21.0,15.0,30.68,West,260,0.0,0.0,76,0.00,,,0.00,,2013-01-08 01:12:00,
2013-01-07 20:22:00,21.0,16.0,30.67,West,260,0.0,0.0,79,0.00,,,0.00,,2013-01-08 01:22:00,
2013-01-07 20:33:00,20.0,14.0,30.67,West,260,0.0,0.0,78,0.00,,,0.00,,2013-01-08 01:33:00,
2013-01-07 20:42:00,20.0,14.0,30.67,West,260,0.0,0.0,78,0.00,,,0.00,,2013-01-08 01:42:00,
2013-01-07 20:52:00,20.0,15.0,30.67,West,260,0.0,0.0,81,0.00,,,0.00,,2013-01-08 01:52:00,
2013-01-07 21:02:00,20.0,15.0,30.67,West,260,0.0,0.0,81,0.00,,,0.00,,2013-01-08 02:02:00,
2013-01-07 21:12:00,20.0,15.0,30.67,West,260,0.0,0.0,81,0.00,,,0.00,,2013-01-08 02:12:00,
2013-01-07 21:22:00,19.0,14.0,30.67,West,260,0.0,0.0,82,0.00,,,0.00,,2013-01-08 02:22:00,
2013-01-07 21:33:00,19.0,15.0,30.67,West,261,0.0,0.0,83,0.00,,,0.00,,2013-01-08 02:33:00,
2013-01-07 21:42:00,19.0,15.0,30.67,West,261,0.0,0.0,83,0.00,,,0.00,,2013-01-08 02:42:00,
2013-01-07 21:53:00,18.0,14.0,30.67,West,260,0.0,0.0,83,0.00,,,0.00,,2013-01-08 02:53:00,
2013-01-07 22:03:00,17.0,13.0,30.67,West,260,0.0,0.0,85,0.00,,,0.00,,2013-01-08 03:03:00,
2013-01-07 22:12:00,17.0,13.0,30.67,West,260,0.0,0.0,85,0.00,,,0.00,,2013-01-08 03:12:00,
2013-01-07 22:22:00,18.0,15.0,30.67,West,260,0.0,0.0,88,0.00,,,0.00,,2013-01-08 03:22:00,
2013-01-07 22:32:00,18.0,15.0,30.67,West,260,0.0,0.0,87,0.00,,,0.00,,2013-01-08 03:32:00,
2013-01-07 22:43:00,18.0,15.0,30.67,West,260,0.0,0.0,87,0.00,,,0.00,,2013-01-08 03:43:00,
2013-01-07 22:53:00,19.0,16.0,30.67,WSW,250,0.0,2.0,87,0.00,,,0.00,,2013-01-08 03:53:00,
2013-01-07 23:02:00,21.0,18.0,30.66,WSW,241,0.0,1.0,87,0.00,,,0.00,,2013-01-08 04:02:00,
2013-01-07 23:12:00,21.0,18.0,30.66,WSW,241,0.0,1.0,87,0.00,,,0.00,,2013-01-08 04:12:00,
2013-01-07 23:22:00,22.0,19.0,30.66,WSW,243,0.0,0.0,87,0.00,,,0.00,,2013-01-08 04:22:00,
2013-01-07 23:32:00,22.0,19.0,30.66,WSW,243,0.0,1.0,87,0.00,,,0.00,,2013-01-08 04:32:00,
2013-01-07 23:42:00,22.0,19.0,30.66,WSW,243,0.0,1.0,87,0.00,,,0.00,,2013-01-08 04:42:00,
2013-01-07 23:52:00,21.0,17.0,30.65,WSW,243,0.0,1.0,86,0.00,,,0.00,,2013-01-08 04:52:00,